createdAt,value
2023-04-22T06:54:23.292Z,75.59
2023-04-22T06:56:52.619Z,73.77
2023-04-22T07:03:07.022Z,72.85
2023-04-22T07:05:48.756Z,70.69
2023-04-22T07:08:19.906Z,69.67
2023-04-22T07:10:49.036Z,69.81
2023-04-22T07:13:20.516Z,68.62
2023-04-22T07:14:21.852Z,68.88
2023-04-22T07:15:23.290Z,68.29
2023-04-22T07:17:45.227Z,68.33
2023-04-22T07:18:46.632Z,67.74
2023-04-22T07:19:48.970Z,67.36
2023-04-22T07:22:15.716Z,68.70
2023-04-22T07:23:17.065Z,68.17
2023-04-22T07:24:18.652Z,68.97
2023-04-22T07:25:20.039Z,67.42
2023-04-22T07:26:21.418Z,65.32
2023-04-22T07:28:43.581Z,66.27
2023-04-22T07:29:45.160Z,65.11
2023-04-22T07:32:05.217Z,66.37
2023-04-22T07:33:06.751Z,65.99
2023-04-22T07:34:10.529Z,66.62
2023-04-22T07:35:11.908Z,67.47
2023-04-22T07:36:13.253Z,68.05
2023-04-22T07:37:14.658Z,68.17
2023-04-22T07:38:16.176Z,68.52
2023-04-22T07:39:17.977Z,67.77
2023-04-22T07:40:19.561Z,66.44
2023-04-22T07:41:20.963Z,67.65
2023-04-22T07:42:22.407Z,66.74
2023-04-22T07:43:23.821Z,65.48
2023-04-22T07:44:25.147Z,64.86
2023-04-22T07:45:26.563Z,65.66
2023-04-22T07:46:28.318Z,66.73
2023-04-22T07:47:30.093Z,66.68
2023-04-22T07:48:31.519Z,66.21
2023-04-22T07:49:33.052Z,64.30
2023-04-22T07:50:35.204Z,65.55
2023-04-22T07:51:37.441Z,65.25
2023-04-22T07:52:38.826Z,66.38
2023-04-22T07:53:40.373Z,64.13
2023-04-22T07:54:41.777Z,63.79
2023-04-22T07:55:43.324Z,64.60
2023-04-22T07:56:44.668Z,64.26
2023-04-22T07:57:46.317Z,62.98
2023-04-22T07:58:47.715Z,63.65
2023-04-22T07:59:49.730Z,63.83
2023-04-22T08:00:51.303Z,62.90
2023-04-22T08:01:52.992Z,63.38
2023-04-22T08:02:54.570Z,62.50
2023-04-22T08:03:56.641Z,62.70
2023-04-22T08:04:58.217Z,61.87
2023-04-22T08:05:59.684Z,62.43
2023-04-22T08:07:09.269Z,62.00
2023-04-22T08:08:19.020Z,59.36
2023-04-22T08:09:20.586Z,58.77
2023-04-22T08:10:22.277Z,58.35
2023-04-22T08:11:23.741Z,57.96
2023-04-22T08:12:25.310Z,57.83
2023-04-22T08:13:27.567Z,57.03
2023-04-22T08:14:29.049Z,55.41
2023-04-22T08:15:30.577Z,53.67
2023-04-22T08:16:32.249Z,54.16
2023-04-22T08:17:33.830Z,55.24
2023-04-22T08:18:35.426Z,54.00
2023-04-22T08:19:37.193Z,53.98
2023-04-22T08:20:38.795Z,55.51
2023-04-22T08:21:40.274Z,54.60
2023-04-22T08:22:42.876Z,52.60
2023-04-22T08:23:44.269Z,53.65
2023-04-22T08:24:45.770Z,54.55
2023-04-22T08:25:48.135Z,54.92
2023-04-22T08:26:49.521Z,55.15
2023-04-22T08:27:51.650Z,54.09
2023-04-22T08:28:53.118Z,52.68
2023-04-22T08:29:54.534Z,53.61
2023-04-22T08:30:55.921Z,54.41
2023-04-22T08:31:57.378Z,54.46
2023-04-22T08:32:58.791Z,54.56
2023-04-22T08:34:00.357Z,53.18
2023-04-22T08:35:05.241Z,52.64
2023-04-22T08:36:08.651Z,53.32
2023-04-22T08:37:10.169Z,54.07
2023-04-22T08:38:11.530Z,52.56
2023-04-22T08:39:12.987Z,53.15
2023-04-22T08:40:14.383Z,53.61
2023-04-22T08:41:21.738Z,52.65
2023-04-22T08:42:23.429Z,51.79
2023-04-22T08:43:28.212Z,52.77
2023-04-22T08:44:29.923Z,52.49
2023-04-22T08:45:31.891Z,52.50
2023-04-22T08:46:33.678Z,52.89
2023-04-22T08:47:37.201Z,52.26
2023-04-22T08:48:38.998Z,50.87
2023-04-22T08:49:40.838Z,52.42
2023-04-22T08:50:42.622Z,52.57
2023-04-22T08:51:45.080Z,51.98
2023-04-22T08:52:46.651Z,50.35
2023-04-22T08:53:48.155Z,52.00
2023-04-22T08:54:49.873Z,51.60
2023-04-22T08:55:51.971Z,51.12
2023-04-22T08:56:53.978Z,50.20
2023-04-22T08:57:55.819Z,49.80
2023-04-22T08:58:57.779Z,49.32
2023-04-22T08:59:59.692Z,50.28
2023-04-22T09:01:02.730Z,50.38
2023-04-22T09:02:06.477Z,51.06
2023-04-22T09:03:08.611Z,49.65
2023-04-22T09:04:11.448Z,50.97
2023-04-22T09:05:14.283Z,49.69
2023-04-22T09:06:19.480Z,50.20
2023-04-22T09:07:27.689Z,50.38
2023-04-22T09:08:29.389Z,51.19
2023-04-22T09:09:32.042Z,50.19
2023-04-22T09:10:37.913Z,50.51
2023-04-22T09:11:39.403Z,49.80
2023-04-22T09:12:41.429Z,49.91
2023-04-22T09:13:43.302Z,49.76
2023-04-22T09:14:45.520Z,48.38
2023-04-22T09:15:47.787Z,48.48
2023-04-22T09:16:49.804Z,50.03
2023-04-22T09:17:52.246Z,49.28
2023-04-22T09:18:53.821Z,48.03
2023-04-22T09:20:00.273Z,48.98
2023-04-22T09:21:01.748Z,48.24
2023-04-22T09:22:03.355Z,49.05
2023-04-22T09:23:05.078Z,48.59
2023-04-22T09:24:08.661Z,47.28
2023-04-22T09:25:23.756Z,48.44
2023-04-22T09:26:26.344Z,48.29
2023-04-22T09:27:28.579Z,48.77
2023-04-22T09:28:29.986Z,48.61
2023-04-22T09:29:31.769Z,48.85
2023-04-22T09:30:36.499Z,47.51
2023-04-22T09:31:37.961Z,48.66
2023-04-22T09:32:39.733Z,47.07
2023-04-22T09:33:41.161Z,47.56
2023-04-22T09:34:49.237Z,48.02
2023-04-22T09:35:50.738Z,46.46
2023-04-22T09:36:52.131Z,47.34
2023-04-22T09:37:53.552Z,47.77
2023-04-22T09:38:55.691Z,48.69
2023-04-22T09:39:57.107Z,48.51
2023-04-22T09:40:58.480Z,47.81
2023-04-22T09:41:59.900Z,48.20
2023-04-22T09:43:07.229Z,48.53
2023-04-22T09:44:17.978Z,48.77
2023-04-22T09:45:32.854Z,48.58
2023-04-22T09:46:35.011Z,47.40
2023-04-22T09:47:36.754Z,48.08
2023-04-22T09:48:47.298Z,48.47
2023-04-22T09:49:49.923Z,45.14
2023-04-22T09:50:51.576Z,45.20
2023-04-22T09:51:58.977Z,44.70
2023-04-22T09:53:02.789Z,44.45
2023-04-22T09:54:08.792Z,44.67
2023-04-22T09:55:10.262Z,45.34
2023-04-22T09:56:11.938Z,42.46
2023-04-22T09:57:16.352Z,43.58
2023-04-22T09:58:19.764Z,45.33
2023-04-22T09:59:23.158Z,45.83
2023-04-22T10:00:29.064Z,45.79
2023-04-22T10:01:41.447Z,43.19
2023-04-22T10:02:43.025Z,42.58
2023-04-22T10:03:44.739Z,43.57
2023-04-22T10:04:47.456Z,43.42
2023-04-22T10:05:49.017Z,42.08
2023-04-22T10:06:51.056Z,42.60
2023-04-22T10:07:52.972Z,43.28
2023-04-22T10:08:54.782Z,42.21
2023-04-22T10:09:56.896Z,42.87
2023-04-22T10:10:58.322Z,42.87
2023-04-22T10:11:59.746Z,42.57
2023-04-22T10:13:02.282Z,42.45
2023-04-22T10:14:04.362Z,41.74
2023-04-22T10:15:07.497Z,41.00
2023-04-22T10:16:09.101Z,39.72
2023-04-22T10:17:13.339Z,41.44
2023-04-22T10:18:18.741Z,41.82
2023-04-22T10:19:22.518Z,42.19
2023-04-22T10:20:25.878Z,42.29
2023-04-22T10:21:30.107Z,43.16
2023-04-22T10:22:33.901Z,43.39
2023-04-22T10:23:35.283Z,43.38
2023-04-22T10:24:39.727Z,42.80
2023-04-22T10:25:41.978Z,42.33
2023-04-22T10:26:56.925Z,42.31
2023-04-22T10:28:04.887Z,41.61
2023-04-22T10:29:16.594Z,41.62
2023-04-22T10:30:28.551Z,41.41
2023-04-22T10:31:30.894Z,42.07
2023-04-22T10:32:33.224Z,41.32
2023-04-22T10:33:39.487Z,40.49
2023-04-22T10:34:41.260Z,40.02
2023-04-22T10:36:14.693Z,40.63
2023-04-22T10:37:21.874Z,40.52
2023-04-22T10:38:23.905Z,40.49
2023-04-22T10:39:27.097Z,39.94
2023-04-22T10:40:28.895Z,39.38
2023-04-22T10:41:33.698Z,39.60
2023-04-22T10:42:35.686Z,40.01
2023-04-22T10:43:53.966Z,39.79
2023-04-22T10:45:02.056Z,40.42
2023-04-22T10:46:04.913Z,41.16
2023-04-22T10:47:09.921Z,42.19
2023-04-22T10:48:13.338Z,40.13
2023-04-22T10:49:21.387Z,40.14
2023-04-22T10:50:27.049Z,40.27
2023-04-22T10:51:50.926Z,40.27
2023-04-22T10:52:57.640Z,39.61
2023-04-22T10:54:02.391Z,39.08
2023-04-22T10:55:05.355Z,39.69
2023-04-22T10:56:18.858Z,39.36
2023-04-22T10:57:24.981Z,39.45
2023-04-22T10:58:26.876Z,40.29
2023-04-22T10:59:29.023Z,39.90
2023-04-22T11:00:52.291Z,39.39
2023-04-22T11:02:01.088Z,38.85
2023-04-22T11:03:05.780Z,38.69
2023-04-22T11:04:23.914Z,39.75
2023-04-22T11:05:27.790Z,40.53
2023-04-22T11:06:30.556Z,41.52
2023-04-22T11:07:34.881Z,40.12
2023-04-22T11:08:37.010Z,38.26
2023-04-22T11:09:45.203Z,37.98
2023-04-22T11:10:49.602Z,38.37
2023-04-22T11:11:51.655Z,38.53
2023-04-22T11:12:54.260Z,37.75
2023-04-22T11:14:01.446Z,38.18
2023-04-22T11:15:18.120Z,37.75
2023-04-22T11:16:22.856Z,38.20
2023-04-22T11:17:25.124Z,38.35
2023-04-22T11:18:27.824Z,37.92
2023-04-22T11:19:30.188Z,38.41
2023-04-22T11:20:32.112Z,38.97
2023-04-22T11:21:34.068Z,39.47
2023-04-22T11:22:42.113Z,39.40
2023-04-22T11:23:53.530Z,39.56
2023-04-22T11:24:56.548Z,39.77
2023-04-22T11:26:00.945Z,39.78
2023-04-22T11:27:02.960Z,40.79
2023-04-22T11:28:05.482Z,39.15
2023-04-22T11:29:08.778Z,39.66
2023-04-22T11:30:20.661Z,39.90
2023-04-22T11:31:22.763Z,39.91
2023-04-22T11:32:24.673Z,41.40
2023-04-22T11:33:26.678Z,41.25
2023-04-22T11:34:29.903Z,41.48
2023-04-22T11:35:34.428Z,41.92
2023-04-22T11:36:36.428Z,41.82
2023-04-22T11:37:43.456Z,42.18
2023-04-22T11:38:58.146Z,42.86
2023-04-22T11:40:21.404Z,42.63
2023-04-22T11:41:23.990Z,42.37
2023-04-22T11:42:25.924Z,43.11
2023-04-22T11:43:27.974Z,41.77
2023-04-22T11:44:29.781Z,42.28
2023-04-22T11:45:36.355Z,41.81
2023-04-22T11:46:41.252Z,42.09
2023-04-22T11:47:46.280Z,42.81
2023-04-22T11:48:48.232Z,41.74
2023-04-22T11:49:58.053Z,41.37
2023-04-22T11:51:12.946Z,41.58
2023-04-22T11:52:14.741Z,42.35
2023-04-22T11:53:19.873Z,42.60
2023-04-22T11:54:38.607Z,42.12
2023-04-22T11:55:41.420Z,42.32
2023-04-22T11:56:43.298Z,40.91
2023-04-22T11:57:46.334Z,40.51
2023-04-22T11:58:48.256Z,42.11
2023-04-22T11:59:59.668Z,41.49
2023-04-22T12:01:01.773Z,40.40
2023-04-22T12:02:07.127Z,39.44
2023-04-22T12:03:19.384Z,38.69
2023-04-22T12:04:23.079Z,37.94
2023-04-22T12:05:37.281Z,38.49
2023-04-22T12:06:41.312Z,38.30
2023-04-22T12:07:43.620Z,37.95
2023-04-22T12:08:48.066Z,38.09
2023-04-22T12:09:54.466Z,38.06
2023-04-22T12:10:59.980Z,37.37
2023-04-22T12:12:04.499Z,36.35
2023-04-22T12:13:06.884Z,36.75
2023-04-22T12:14:09.166Z,38.21
2023-04-22T12:15:13.761Z,37.68
2023-04-22T12:16:19.511Z,38.39
2023-04-22T12:17:25.433Z,38.76
2023-04-22T12:18:37.249Z,37.94
2023-04-22T12:19:39.404Z,38.69
2023-04-22T12:20:42.321Z,39.05
2023-04-22T12:21:44.173Z,39.41
2023-04-22T12:22:46.018Z,39.60
2023-04-22T12:23:56.112Z,40.08
2023-04-22T12:25:01.821Z,38.94
2023-04-22T12:26:03.607Z,39.47
2023-04-22T12:27:05.518Z,39.03
2023-04-22T12:28:07.497Z,39.77
2023-04-22T12:29:09.356Z,39.83
2023-04-22T12:30:11.640Z,39.50
2023-04-22T12:31:15.152Z,39.34
2023-04-22T12:32:17.041Z,40.00
2023-04-22T12:33:19.061Z,40.25
2023-04-22T12:34:21.160Z,40.61
2023-04-22T12:35:23.014Z,41.35
2023-04-22T12:36:25.769Z,42.34
2023-04-22T12:37:28.124Z,44.92
2023-04-22T12:38:29.996Z,47.42
2023-04-22T12:39:32.409Z,48.20
2023-04-22T12:40:33.837Z,48.35
2023-04-22T12:41:35.185Z,48.36
2023-04-22T12:42:36.647Z,48.56
2023-04-22T12:43:39.552Z,47.91
2023-04-22T12:44:41.394Z,47.81
2023-04-22T12:45:42.898Z,48.66
2023-04-22T12:46:44.486Z,48.11
2023-04-22T12:47:46.994Z,48.33
2023-04-22T12:48:48.375Z,49.18
2023-04-22T12:49:50.276Z,48.89
2023-04-22T12:50:51.844Z,48.91
2023-04-22T12:51:53.476Z,48.86
2023-04-22T12:52:55.102Z,48.34
2023-04-22T12:53:56.609Z,48.18
2023-04-22T12:54:58.017Z,47.61
2023-04-22T12:55:59.659Z,48.31
2023-04-22T12:57:02.257Z,48.13
2023-04-22T12:58:04.178Z,48.40
2023-04-22T12:59:05.591Z,49.23
2023-04-22T13:00:14.121Z,48.70
2023-04-22T13:01:15.602Z,48.63
2023-04-22T13:02:17.134Z,48.91
2023-04-22T13:03:18.800Z,49.10
2023-04-22T13:04:20.768Z,50.08
2023-04-22T13:05:22.395Z,49.30
2023-04-22T13:06:23.842Z,48.75
2023-04-22T13:07:25.201Z,48.83
2023-04-22T13:08:27.708Z,48.65
2023-04-22T13:09:29.081Z,48.19
2023-04-22T13:10:30.653Z,48.88
2023-04-22T13:11:32.139Z,48.01
2023-04-22T13:12:33.748Z,47.03
2023-04-22T13:13:35.802Z,47.00
2023-04-22T13:14:37.277Z,48.04
2023-04-22T13:15:38.887Z,48.30
2023-04-22T13:16:40.782Z,46.77
2023-04-22T13:17:42.719Z,46.50
2023-04-22T13:18:45.197Z,45.15
2023-04-22T13:19:48.163Z,45.23
2023-04-22T13:20:49.597Z,45.72
2023-04-22T13:21:51.121Z,44.19
2023-04-22T13:22:53.694Z,44.91
2023-04-22T13:23:55.170Z,44.86
2023-04-22T13:24:56.672Z,44.77
2023-04-22T13:25:58.115Z,44.70
2023-04-22T13:26:59.700Z,45.62
2023-04-22T13:28:01.260Z,47.01
2023-04-22T13:29:02.964Z,47.57
2023-04-22T13:30:07.332Z,48.14
2023-04-22T13:31:08.804Z,44.28
2023-04-22T13:32:10.622Z,44.81
2023-04-22T13:33:12.032Z,43.43
2023-04-22T13:34:14.263Z,44.61
2023-04-22T13:35:17.992Z,44.67
2023-04-22T13:36:19.392Z,45.58
2023-04-22T13:37:21.475Z,44.77
2023-04-22T13:38:22.851Z,44.67
2023-04-22T13:39:24.985Z,44.16
2023-04-22T13:40:27.322Z,44.26
2023-04-22T13:41:28.743Z,44.06
2023-04-22T13:42:30.445Z,44.19
2023-04-22T13:43:32.530Z,44.14
2023-04-22T13:44:33.949Z,44.05
2023-04-22T13:45:35.863Z,44.71
2023-04-22T13:46:37.289Z,44.05
2023-04-22T13:47:39.252Z,44.86
2023-04-22T13:48:40.826Z,44.58
2023-04-22T13:49:42.315Z,44.11
2023-04-22T13:50:43.878Z,43.67
2023-04-22T13:51:45.447Z,43.95
2023-04-22T13:52:47.950Z,44.37
2023-04-22T13:53:49.368Z,44.99
2023-04-22T13:54:50.925Z,44.31
2023-04-22T13:55:52.379Z,44.73
2023-04-22T13:56:54.281Z,44.62
2023-04-22T13:57:55.710Z,44.79
2023-04-22T13:58:58.278Z,44.80
2023-04-22T13:59:59.971Z,45.15
2023-04-22T14:01:01.474Z,45.00
2023-04-22T14:02:03.114Z,45.15
2023-04-22T14:03:05.241Z,45.20
2023-04-22T14:04:06.937Z,44.78
2023-04-22T14:05:09.859Z,45.36
2023-04-22T14:06:11.305Z,45.42
2023-04-22T14:07:12.811Z,45.60
2023-04-22T14:08:14.208Z,45.35
2023-04-22T14:09:15.531Z,45.21
2023-04-22T14:10:20.298Z,45.78
2023-04-22T14:11:21.821Z,45.77
2023-04-22T14:12:23.314Z,46.88
2023-04-22T14:13:28.237Z,45.89
2023-04-22T14:14:29.744Z,46.01
2023-04-22T14:15:31.154Z,46.55
2023-04-22T14:16:32.543Z,46.99
2023-04-22T14:17:34.132Z,48.05
2023-04-22T14:18:36.935Z,49.04
2023-04-22T14:19:39.960Z,47.02
2023-04-22T14:20:43.081Z,46.32
2023-04-22T14:21:44.461Z,46.62
2023-04-22T14:22:46.391Z,47.19
2023-04-22T14:23:47.850Z,46.55
2023-04-22T14:24:49.276Z,46.19
2023-04-22T14:25:50.781Z,46.62
2023-04-22T14:26:52.730Z,46.88
2023-04-22T14:27:54.255Z,46.57
2023-04-22T14:28:55.605Z,47.26
2023-04-22T14:29:57.032Z,47.65
2023-04-22T14:30:59.034Z,47.49
2023-04-22T14:32:00.954Z,46.91
2023-04-22T14:33:06.970Z,46.92
2023-04-22T14:34:08.515Z,47.56
2023-04-22T14:35:10.130Z,48.14
2023-04-22T14:36:11.489Z,47.69
2023-04-22T14:37:12.911Z,47.18
2023-04-22T14:38:14.573Z,47.89
2023-04-22T14:39:16.335Z,47.85
2023-04-22T14:40:18.904Z,47.88
2023-04-22T14:41:21.333Z,47.35
2023-04-22T14:42:25.425Z,47.43
2023-04-22T14:43:26.955Z,47.55
2023-04-22T14:44:28.662Z,47.69
2023-04-22T14:48:44.743Z,48.41
2023-04-22T14:53:21.736Z,48.44
2023-04-22T14:57:58.446Z,48.35
2023-04-22T16:02:38.606Z,51.60
2023-04-22T16:05:47.279Z,51.45
2023-04-22T16:09:07.783Z,51.36
